Time;durP1;ratioP1;P1;durP2;ratioP2;P2;SDS_P1;SDS_P2;PMS_P1;PMS_P2;Temp;Humidity;BMP_temperature;BMP_pressure;BME280_temperature;BME280_humidity;BME280_pressure;Samples;Min_cycle;Max_cycle;Signal;HPM_P1;HPM_P2
2022/03/14 00:02:06;;;;;;;2.70;2.50;;;13.40;99.90;;;;;;5028765;28;20017;-80
2022/03/14 00:04:37;;;;;;;5.68;2.80;;;13.40;99.90;;;;;;5043095;28;20104;-80
2022/03/14 00:07:04;;;;;;;3.63;2.80;;;13.40;99.90;;;;;;5028822;28;20528;-81
2022/03/14 00:09:30;;;;;;;3.35;3.00;;;13.20;99.90;;;;;;5026359;28;20050;-80
2022/03/14 00:11:57;;;;;;;3.80;2.83;;;13.40;99.90;;;;;;5037568;28;20065;-81
2022/03/14 00:14:25;;;;;;;3.33;2.67;;;13.40;99.90;;;;;;5047527;28;20116;-81
2022/03/14 00:16:52;;;;;;;3.03;2.75;;;13.40;99.90;;;;;;5032245;28;20096;-80
2022/03/14 00:19:20;;;;;;;3.92;2.90;;;13.40;99.90;;;;;;5041094;28;20377;-80
2022/03/14 00:21:46;;;;;;;2.65;2.45;;;13.40;99.90;;;;;;5038742;28;20597;-80
2022/03/14 00:24:12;;;;;;;2.80;2.53;;;13.40;99.90;;;;;;5034569;28;21070;-80
2022/03/14 00:26:39;;;;;;;2.78;2.58;;;13.40;99.90;;;;;;5032212;28;20078;-81
2022/03/14 00:29:06;;;;;;;3.42;3.13;;;13.40;99.90;;;;;;5041369;28;20414;-81
2022/03/14 00:31:32;;;;;;;3.40;3.10;;;13.40;99.90;;;;;;5033993;28;20021;-82
2022/03/14 00:33:58;;;;;;;3.10;2.72;;;13.30;99.90;;;;;;5030697;28;20057;-81
2022/03/14 00:36:25;;;;;;;3.10;2.90;;;13.20;99.90;;;;;;5032459;28;20049;-81
2022/03/14 00:38:51;;;;;;;3.40;3.10;;;13.30;99.90;;;;;;5041313;28;20027;-81
2022/03/14 00:41:18;;;;;;;3.28;2.80;;;13.30;99.90;;;;;;5031287;28;20065;-80
2022/03/14 00:43:44;;;;;;;3.83;2.92;;;13.20;99.90;;;;;;5028631;28;20041;-81
2022/03/14 00:46:10;;;;;;;2.65;2.40;;;13.20;99.90;;;;;;5042755;28;20100;-81
2022/03/14 00:48:36;;;;;;;2.85;2.65;;;13.20;99.90;;;;;;5034604;28;20120;-80
2022/03/14 00:51:03;;;;;;;2.75;2.55;;;13.20;99.90;;;;;;5046361;28;20017;-81
2022/03/14 00:53:31;;;;;;;2.75;2.50;;;13.30;99.90;;;;;;5045971;28;20032;-81
2022/03/14 00:55:58;;;;;;;4.80;2.47;;;13.20;99.90;;;;;;5038427;28;20446;-81
2022/03/14 00:58:26;;;;;;;3.15;2.70;;;13.20;99.90;;;;;;5034019;28;20121;-81
2022/03/14 01:00:51;;;;;;;2.92;2.65;;;13.10;99.90;;;;;;5051114;28;20032;-81
2022/03/14 01:03:17;;;;;;;2.70;2.50;;;13.10;99.90;;;;;;5039400;28;20400;-81
2022/03/14 01:05:43;;;;;;;2.58;2.38;;;13.20;99.90;;;;;;5038045;28;20038;-81
2022/03/14 01:08:08;;;;;;;2.88;2.58;;;13.20;99.90;;;;;;5029909;28;20040;-81
2022/03/14 01:10:35;;;;;;;3.75;2.80;;;13.20;99.90;;;;;;5034220;28;20428;-82
2022/03/14 01:13:02;;;;;;;2.60;2.40;;;13.20;99.90;;;;;;5037667;28;20079;-81
2022/03/14 01:15:29;;;;;;;2.85;2.65;;;13.20;99.90;;;;;;5035363;28;20466;-81
2022/03/14 01:17:55;;;;;;;2.90;2.50;;;13.10;99.90;;;;;;5037627;28;20017;-80
2022/03/14 01:20:21;;;;;;;3.15;2.40;;;13.10;99.90;;;;;;5032649;28;20030;-81
2022/03/14 01:22:47;;;;;;;2.85;2.63;;;13.10;99.90;;;;;;5040526;28;20044;-81
2022/03/14 01:25:13;;;;;;;3.03;2.83;;;13.20;99.90;;;;;;5049728;28;20027;-81
2022/03/14 01:27:38;;;;;;;3.40;2.58;;;13.10;99.90;;;;;;5037607;28;20437;-81
2022/03/14 01:30:05;;;;;;;3.30;3.00;;;13.20;99.90;;;;;;5043557;28;20029;-81
2022/03/14 01:32:30;;;;;;;3.55;2.88;;;13.20;99.90;;;;;;5044273;28;20029;-81
2022/03/14 01:34:56;;;;;;;2.70;2.45;;;13.10;99.90;;;;;;5045277;28;20436;-81
2022/03/14 01:37:21;;;;;;;3.60;3.30;;;13.20;99.90;;;;;;5034697;28;20037;-81
2022/03/14 01:39:47;;;;;;;3.03;2.72;;;13.20;99.90;;;;;;5044031;28;20417;-80
2022/03/14 01:42:19;;;;;;;2.63;2.42;;;13.20;99.90;;;;;;5041627;28;20033;-80
2022/03/14 01:44:48;;;;;;;3.13;2.83;;;13.10;99.90;;;;;;5040264;28;20052;-79
2022/03/14 01:47:15;;;;;;;3.13;2.67;;;13.00;99.90;;;;;;5036769;28;20025;-80
2022/03/14 01:49:44;;;;;;;3.13;2.88;;;13.00;99.90;;;;;;5047909;28;20482;-79
2022/03/14 01:52:11;;;;;;;3.05;2.85;;;13.00;99.90;;;;;;5040883;28;20120;-80
2022/03/14 01:54:38;;;;;;;2.75;2.55;;;13.00;99.90;;;;;;5040795;28;20520;-81
2022/03/14 01:57:05;;;;;;;2.72;2.53;;;13.00;99.90;;;;;;5040029;28;20485;-81
2022/03/14 01:59:32;;;;;;;2.70;2.50;;;13.00;99.90;;;;;;5048806;28;20418;-80
2022/03/14 02:01:59;;;;;;;2.88;2.67;;;13.00;99.90;;;;;;5038530;28;20458;-80
2022/03/14 02:04:24;;;;;;;2.80;2.60;;;13.00;99.90;;;;;;5043188;28;20390;-80
2022/03/14 02:06:53;;;;;;;3.47;3.20;;;12.90;99.90;;;;;;5035704;28;20032;-80
2022/03/14 02:09:20;;;;;;;5.22;3.53;;;12.80;99.90;;;;;;5046918;28;20041;-80
2022/03/14 02:11:55;;;;;;;3.40;3.10;;;12.90;99.90;;;;;;5037852;28;20033;-80
2022/03/14 02:14:21;;;;;;;2.97;2.78;;;13.00;99.90;;;;;;5038378;28;20342;-80
2022/03/14 02:16:47;;;;;;;3.72;3.33;;;12.90;99.90;;;;;;5037260;28;20029;-80
2022/03/14 02:19:13;;;;;;;4.22;3.25;;;12.90;99.90;;;;;;5049098;28;20029;-81
2022/03/14 02:21:39;;;;;;;3.65;3.35;;;12.90;99.90;;;;;;5035746;28;20116;-80
2022/03/14 02:24:05;;;;;;;2.80;2.60;;;12.70;99.90;;;;;;5042653;28;20166;-80
2022/03/14 02:26:31;;;;;;;2.80;2.60;;;12.80;99.90;;;;;;5034615;28;20110;-81
2022/03/14 02:28:57;;;;;;;3.30;3.00;;;12.70;99.90;;;;;;5046358;28;20060;-80
2022/03/14 02:31:24;;;;;;;3.22;2.92;;;12.60;99.90;;;;;;5039138;28;20030;-81
2022/03/14 02:33:49;;;;;;;3.13;2.72;;;12.60;99.90;;;;;;5042319;28;20083;-80
2022/03/14 02:36:15;;;;;;;3.70;3.30;;;12.60;99.90;;;;;;5040525;28;20023;-81
2022/03/14 02:38:41;;;;;;;3.05;2.75;;;12.70;99.90;;;;;;5034983;28;20045;-80
2022/03/14 02:41:06;;;;;;;3.58;3.13;;;12.70;99.90;;;;;;5034111;28;20108;-80
2022/03/14 02:43:32;;;;;;;3.75;3.42;;;12.70;99.90;;;;;;5042715;28;20088;-80
2022/03/14 02:45:58;;;;;;;3.30;3.08;;;12.60;99.90;;;;;;5043778;28;20036;-80
2022/03/14 02:48:23;;;;;;;3.40;3.10;;;12.60;99.90;;;;;;5042261;28;20397;-80
2022/03/14 02:50:53;;;;;;;3.30;3.10;;;12.60;99.90;;;;;;5032115;28;20034;-81
2022/03/14 02:53:19;;;;;;;3.10;2.90;;;12.60;99.90;;;;;;5038470;28;20021;-81
2022/03/14 02:55:45;;;;;;;3.28;2.72;;;12.60;99.90;;;;;;5033173;28;20079;-80
2022/03/14 02:58:11;;;;;;;4.30;3.08;;;12.60;99.90;;;;;;5038796;28;20028;-80
2022/03/14 03:00:37;;;;;;;3.33;3.05;;;12.50;99.90;;;;;;5036137;28;20109;-80
2022/03/14 03:03:06;;;;;;;2.65;2.45;;;12.60;99.90;;;;;;5042248;28;20124;-79
2022/03/14 03:05:37;;;;;;;3.22;2.67;;;12.60;99.90;;;;;;5035474;28;20033;-81
2022/03/14 03:08:03;;;;;;;4.15;2.38;;;12.60;99.90;;;;;;5044949;28;20033;-80
2022/03/14 03:10:29;;;;;;;3.00;2.80;;;12.50;99.90;;;;;;5039219;28;20075;-80
2022/03/14 03:12:55;;;;;;;3.10;2.80;;;12.40;99.90;;;;;;5038869;28;20469;-80
2022/03/14 03:15:22;;;;;;;2.88;2.58;;;12.40;99.90;;;;;;5034943;28;20029;-80
2022/03/14 03:17:48;;;;;;;2.80;2.60;;;12.30;99.90;;;;;;5027916;28;20074;-79
2022/03/14 03:20:14;;;;;;;5.82;2.78;;;12.30;99.90;;;;;;5037735;28;20029;-80
2022/03/14 03:22:40;;;;;;;3.45;3.05;;;12.10;99.90;;;;;;5038700;28;20073;-80
2022/03/14 03:25:06;;;;;;;3.33;3.03;;;12.20;99.90;;;;;;5028621;28;20482;-80
2022/03/14 03:27:32;;;;;;;2.85;2.55;;;12.20;99.90;;;;;;5028089;28;20068;-80
2022/03/14 03:29:59;;;;;;;3.53;2.92;;;12.30;99.90;;;;;;5042341;28;20060;-81
2022/03/14 03:32:25;;;;;;;3.30;3.00;;;12.30;99.90;;;;;;5033726;28;20031;-82
2022/03/14 03:34:50;;;;;;;3.22;2.92;;;12.30;99.90;;;;;;5025790;28;20038;-82
2022/03/14 03:37:16;;;;;;;3.00;2.67;;;12.20;99.90;;;;;;5041112;28;20060;-81
2022/03/14 03:39:42;;;;;;;4.45;3.22;;;12.20;99.90;;;;;;5039535;28;20040;-81
2022/03/14 03:42:07;;;;;;;4.15;3.70;;;12.30;99.90;;;;;;5039497;28;20025;-81
2022/03/14 03:44:34;;;;;;;4.45;3.28;;;12.20;99.90;;;;;;5045382;28;20044;-82
2022/03/14 03:47:01;;;;;;;4.85;3.67;;;12.20;99.90;;;;;;5035589;28;20024;-82
2022/03/14 03:49:27;;;;;;;8.32;4.30;;;11.90;99.90;;;;;;5032998;28;20036;-81
2022/03/14 03:51:52;;;;;;;4.75;4.35;;;12.00;99.90;;;;;;5032896;28;20462;-81
2022/03/14 03:54:18;;;;;;;7.18;5.35;;;11.90;99.90;;;;;;5031057;28;20041;-81
2022/03/14 03:56:43;;;;;;;5.95;5.35;;;12.00;99.90;;;;;;5040492;28;20036;-83
2022/03/14 03:59:09;;;;;;;7.18;4.95;;;12.00;99.90;;;;;;5031447;28;20056;-83
2022/03/14 04:01:35;;;;;;;6.10;4.97;;;12.00;99.90;;;;;;5042444;28;20377;-83
2022/03/14 04:04:01;;;;;;;6.00;5.45;;;12.10;99.90;;;;;;5043547;28;20037;-81
2022/03/14 04:06:30;;;;;;;5.35;4.85;;;12.00;99.90;;;;;;5026509;28;20072;-82
2022/03/14 04:09:00;;;;;;;6.15;5.53;;;12.10;99.90;;;;;;5042024;28;20120;-82
2022/03/14 04:11:26;;;;;;;8.18;5.88;;;11.90;99.90;;;;;;5026377;28;20064;-83
2022/03/14 04:13:53;;;;;;;5.75;5.25;;;12.00;99.90;;;;;;5042027;28;20378;-81
2022/03/14 04:16:23;;;;;;;7.05;5.90;;;11.90;99.90;;;;;;5030871;28;20020;-83
2022/03/14 04:18:49;;;;;;;7.53;6.70;;;11.80;99.90;;;;;;5034310;28;20033;-82
2022/03/14 04:21:15;;;;;;;7.57;6.07;;;11.80;99.90;;;;;;5033911;28;20168;-82
2022/03/14 04:23:41;;;;;;;8.48;6.00;;;11.90;99.90;;;;;;5034980;28;20088;-82
2022/03/14 04:26:07;;;;;;;7.63;6.15;;;11.90;99.90;;;;;;5033777;28;20407;-82
2022/03/14 04:28:36;;;;;;;9.20;6.35;;;11.90;99.90;;;;;;5033014;28;20036;-82
2022/03/14 04:31:03;;;;;;;8.27;6.97;;;11.90;99.90;;;;;;5040092;28;20032;-83
2022/03/14 04:33:29;;;;;;;9.10;6.50;;;11.90;99.90;;;;;;5038736;28;20137;-82
2022/03/14 04:35:55;;;;;;;8.73;6.65;;;11.90;99.90;;;;;;5031110;28;20103;-83
2022/03/14 04:38:21;;;;;;;9.35;7.20;;;11.90;99.90;;;;;;5038293;28;20490;-81
2022/03/14 04:40:46;;;;;;;9.63;6.43;;;11.70;99.90;;;;;;5025101;28;20025;-82
2022/03/14 04:43:12;;;;;;;7.15;6.18;;;11.80;99.90;;;;;;5040984;28;20037;-82
2022/03/14 04:45:40;;;;;;;8.20;7.32;;;11.90;99.90;;;;;;5043443;28;20485;-82
2022/03/14 04:48:06;;;;;;;11.27;8.93;;;11.80;99.90;;;;;;5034844;28;20037;-80
2022/03/14 04:50:32;;;;;;;10.90;7.63;;;11.80;99.90;;;;;;5029939;28;20059;-82
2022/03/14 04:52:58;;;;;;;9.30;7.55;;;11.80;99.90;;;;;;5040179;28;20509;-82
2022/03/14 04:55:24;;;;;;;11.48;8.25;;;11.80;99.90;;;;;;5042272;28;20097;-82
2022/03/14 04:57:50;;;;;;;14.00;9.30;;;11.70;99.90;;;;;;5030851;28;20033;-82
2022/03/14 05:00:17;;;;;;;12.48;9.10;;;11.60;99.90;;;;;;5030958;28;20018;-82
2022/03/14 05:02:43;;;;;;;11.85;9.25;;;11.60;99.90;;;;;;5044200;28;20112;-82
2022/03/14 05:05:12;;;;;;;12.88;9.75;;;11.70;99.90;;;;;;5040787;28;20124;-83
2022/03/14 05:07:41;;;;;;;13.93;9.15;;;11.70;99.90;;;;;;5042980;28;20100;-82
2022/03/14 05:10:07;;;;;;;10.48;9.02;;;11.70;99.90;;;;;;5033957;28;20534;-83
2022/03/14 05:12:34;;;;;;;14.30;9.20;;;11.70;99.90;;;;;;5043271;28;20097;-82
2022/03/14 05:15:00;;;;;;;16.17;10.23;;;11.70;99.90;;;;;;5027400;28;20063;-83
2022/03/14 05:17:27;;;;;;;13.45;10.32;;;11.70;99.90;;;;;;5035546;28;20033;-82
2022/03/14 05:19:53;;;;;;;13.43;11.10;;;11.70;99.90;;;;;;5031452;28;20028;-83
2022/03/14 05:22:20;;;;;;;14.63;10.05;;;11.60;99.90;;;;;;5032911;28;20009;-82
2022/03/14 05:24:46;;;;;;;11.23;8.88;;;11.70;99.90;;;;;;5033578;28;20067;-83
2022/03/14 05:27:12;;;;;;;15.40;11.20;;;11.60;99.90;;;;;;5043079;28;20060;-83
2022/03/14 05:29:37;;;;;;;15.00;10.73;;;11.60;99.90;;;;;;5040235;28;20397;-82
2022/03/14 05:32:03;;;;;;;16.40;10.77;;;11.70;99.90;;;;;;5044710;28;20021;-82
2022/03/14 05:34:29;;;;;;;14.00;11.40;;;11.70;99.90;;;;;;5025146;28;20053;-82
2022/03/14 05:36:55;;;;;;;14.95;10.27;;;11.80;99.90;;;;;;5038473;28;20446;-82
2022/03/14 05:39:20;;;;;;;20.77;11.77;;;11.70;99.90;;;;;;5036709;28;20040;-81
2022/03/14 05:41:46;;;;;;;14.00;9.63;;;11.70;99.90;;;;;;5030975;28;20117;-82
2022/03/14 05:44:11;;;;;;;14.30;10.93;;;11.70;99.90;;;;;;5040409;28;20041;-80
2022/03/14 05:46:37;;;;;;;17.83;10.80;;;11.70;99.90;;;;;;5034934;28;20032;-83
2022/03/14 05:49:04;;;;;;;14.52;10.95;;;11.80;99.90;;;;;;5021086;28;20033;-83
2022/03/14 05:51:32;;;;;;;14.48;11.00;;;11.80;99.90;;;;;;5036222;28;20018;-82
2022/03/14 05:53:57;;;;;;;18.38;11.13;;;11.90;99.90;;;;;;5029361;28;20018;-83
2022/03/14 05:56:24;;;;;;;14.15;11.55;;;11.90;99.90;;;;;;5026039;28;20104;-82
2022/03/14 05:58:49;;;;;;;15.45;10.38;;;11.90;99.90;;;;;;5037667;28;20083;-82
2022/03/14 06:01:15;;;;;;;15.88;10.65;;;11.90;99.90;;;;;;5033592;28;20029;-82
2022/03/14 06:03:41;;;;;;;15.73;11.63;;;11.90;99.90;;;;;;5044017;28;20041;-83
2022/03/14 06:06:07;;;;;;;14.48;10.90;;;11.80;99.90;;;;;;5027936;28;20021;-82
2022/03/14 06:08:33;;;;;;;19.23;11.15;;;11.90;99.90;;;;;;5033085;28;20026;-83
2022/03/14 06:10:58;;;;;;;15.75;10.93;;;11.90;99.90;;;;;;5028917;28;20029;-82
2022/03/14 06:13:25;;;;;;;16.10;12.32;;;12.00;99.90;;;;;;5035600;28;20029;-82
2022/03/14 06:15:50;;;;;;;16.83;11.40;;;12.00;99.90;;;;;;5038468;28;20026;-84
2022/03/14 06:18:16;;;;;;;18.70;12.23;;;11.90;99.90;;;;;;5043549;28;20017;-82
2022/03/14 06:20:41;;;;;;;16.35;11.40;;;12.00;99.90;;;;;;5046283;28;20037;-83
2022/03/14 06:23:07;;;;;;;15.57;12.50;;;11.90;99.90;;;;;;5049019;28;20025;-82
2022/03/14 06:25:35;;;;;;;14.52;10.93;;;11.90;99.90;;;;;;5038128;28;20033;-82
2022/03/14 06:28:00;;;;;;;16.38;11.20;;;11.90;99.90;;;;;;5041087;28;20138;-83
2022/03/14 06:30:26;;;;;;;17.60;10.85;;;11.80;99.90;;;;;;5044316;28;20441;-82
2022/03/14 06:32:52;;;;;;;15.38;11.95;;;11.80;99.90;;;;;;5023904;28;20037;-82
2022/03/14 06:35:18;;;;;;;14.95;11.07;;;11.70;99.90;;;;;;5040394;28;20039;-82
2022/03/14 06:37:44;;;;;;;15.18;11.07;;;11.80;99.90;;;;;;5029928;28;20028;-83
2022/03/14 06:40:10;;;;;;;18.55;11.25;;;11.70;99.90;;;;;;5035747;28;20160;-83
2022/03/14 06:42:40;;;;;;;22.30;15.20;;;11.80;99.90;;;;;;5044607;28;20029;-83
2022/03/14 06:45:06;;;;;;;22.50;12.27;;;11.70;99.90;;;;;;5025661;28;20040;-83
2022/03/14 06:47:34;;;;;;;18.88;11.95;;;11.80;99.90;;;;;;5035978;28;20021;-82
2022/03/14 06:50:00;;;;;;;16.23;11.52;;;11.70;99.90;;;;;;5044031;28;20038;-81
2022/03/14 06:52:26;;;;;;;16.45;10.98;;;11.70;99.90;;;;;;5027229;28;20021;-82
2022/03/14 06:54:51;;;;;;;15.63;11.27;;;11.80;99.90;;;;;;5037594;28;20033;-82
2022/03/14 06:57:17;;;;;;;16.40;11.20;;;11.80;99.90;;;;;;5029977;28;20033;-82
2022/03/14 06:59:43;;;;;;;19.85;11.48;;;11.80;99.90;;;;;;5037976;28;20021;-82
2022/03/14 07:02:08;;;;;;;17.40;11.57;;;11.70;99.90;;;;;;5021430;28;20034;-84
2022/03/14 07:04:36;;;;;;;15.68;11.20;;;11.70;99.90;;;;;;5032541;28;20037;-81
2022/03/14 07:07:03;;;;;;;15.25;10.85;;;11.60;99.90;;;;;;5024817;28;20494;-83
2022/03/14 07:09:30;;;;;;;17.67;12.23;;;11.60;99.90;;;;;;5032549;28;20013;-84
2022/03/14 07:11:56;;;;;;;18.00;10.85;;;11.60;99.90;;;;;;5037502;28;20027;-83
2022/03/14 07:14:22;;;;;;;18.98;11.90;;;11.60;99.90;;;;;;5046383;28;20041;-83
2022/03/14 07:16:49;;;;;;;14.00;10.60;;;11.70;99.90;;;;;;5029583;28;20080;-82
2022/03/14 07:19:15;;;;;;;16.45;11.43;;;11.70;99.90;;;;;;5039064;28;20394;-79
2022/03/14 07:21:41;;;;;;;14.35;10.80;;;11.90;99.90;;;;;;5033174;28;20503;-81
2022/03/14 07:24:06;;;;;;;23.30;11.63;;;11.80;99.90;;;;;;5029327;28;20037;-80
2022/03/14 07:26:32;;;;;;;16.80;10.32;;;11.80;99.90;;;;;;5030424;28;20370;-81
2022/03/14 07:28:58;;;;;;;14.68;9.15;;;11.80;99.90;;;;;;5037657;28;20025;-80
2022/03/14 07:31:24;;;;;;;13.15;10.57;;;11.90;99.90;;;;;;5031654;28;20482;-80
2022/03/14 07:33:50;;;;;;;16.38;10.90;;;12.00;99.90;;;;;;5037092;28;20143;-80
2022/03/14 07:36:16;;;;;;;14.48;9.65;;;11.90;99.90;;;;;;5047863;28;20056;-80
2022/03/14 07:38:41;;;;;;;14.73;10.23;;;11.90;99.90;;;;;;5032623;28;20104;-80
2022/03/14 07:41:08;;;;;;;19.33;10.57;;;11.90;99.90;;;;;;5032998;28;20049;-80
2022/03/14 07:43:34;;;;;;;13.13;9.32;;;11.90;99.90;;;;;;5035370;28;20034;-79
2022/03/14 07:46:01;;;;;;;16.92;9.73;;;11.90;99.90;;;;;;5043102;28;21147;-79
2022/03/14 07:48:27;;;;;;;15.43;10.05;;;11.80;99.90;;;;;;5026873;28;20500;-79
2022/03/14 07:50:53;;;;;;;16.38;10.05;;;11.90;99.90;;;;;;5042343;28;20025;-79
2022/03/14 07:53:18;;;;;;;20.40;10.57;;;12.10;99.90;;;;;;5025274;28;20390;-80
2022/03/14 07:55:44;;;;;;;18.83;10.30;;;12.10;99.90;;;;;;5041570;28;20044;-80
2022/03/14 07:58:10;;;;;;;19.70;10.85;;;12.00;99.90;;;;;;5039403;28;20048;-80
2022/03/14 08:00:35;;;;;;;15.52;10.25;;;12.00;99.90;;;;;;5030766;28;20040;-80
2022/03/14 08:03:01;;;;;;;18.90;10.15;;;12.10;99.90;;;;;;5035178;28;20031;-79
2022/03/14 08:05:27;;;;;;;19.45;11.70;;;12.20;99.90;;;;;;5033717;28;20486;-79
2022/03/14 08:07:54;;;;;;;15.05;11.07;;;12.20;99.90;;;;;;5034317;28;20029;-82
2022/03/14 08:10:20;;;;;;;16.83;11.25;;;12.20;99.90;;;;;;5033257;28;20659;-82
2022/03/14 08:12:49;;;;;;;17.92;10.93;;;12.20;99.90;;;;;;5033325;28;20022;-87
2022/03/14 08:15:31;;;;;;;18.70;11.15;;;12.20;99.90;;;;;;5032142;28;20026;-81
2022/03/14 08:18:02;;;;;;;19.02;11.35;;;12.30;99.90;;;;;;5031206;28;20033;-82
2022/03/14 08:20:28;;;;;;;14.65;11.95;;;12.40;99.90;;;;;;5035759;28;20092;-83
2022/03/14 08:22:57;;;;;;;15.30;10.68;;;12.40;99.90;;;;;;5034123;28;20033;-83
2022/03/14 08:25:23;;;;;;;18.88;10.35;;;12.50;99.90;;;;;;5039896;28;20036;-80
2022/03/14 08:27:49;;;;;;;19.00;10.93;;;12.50;99.90;;;;;;5041844;28;20095;-83
2022/03/14 08:30:15;;;;;;;15.38;11.05;;;12.50;99.90;;;;;;5049954;28;20536;-84
2022/03/14 08:32:41;;;;;;;14.43;10.50;;;12.70;99.90;;;;;;5024136;28;20056;-83
2022/03/14 08:35:09;;;;;;;15.13;11.93;;;12.70;99.90;;;;;;5037585;28;20489;-83
2022/03/14 08:37:40;;;;;;;21.10;12.05;;;12.70;99.90;;;;;;5044924;28;20381;-84
2022/03/14 08:40:09;;;;;;;16.13;10.85;;;12.70;99.90;;;;;;5031346;28;20121;-82
2022/03/14 08:42:37;;;;;;;16.00;11.43;;;12.60;99.90;;;;;;5040767;28;20029;-86
2022/03/14 08:45:04;;;;;;;18.77;11.55;;;12.40;99.90;;;;;;5035004;28;20276;-82
2022/03/14 08:47:31;;;;;;;17.55;11.48;;;12.50;99.90;;;;;;5038944;28;20101;-83
2022/03/14 08:49:57;;;;;;;16.55;13.15;;;12.60;99.90;;;;;;5044872;28;20464;-82
2022/03/14 08:52:22;;;;;;;17.63;11.40;;;12.70;99.90;;;;;;5037322;28;20065;-82
2022/03/14 08:54:48;;;;;;;24.75;11.60;;;12.90;99.90;;;;;;5033032;28;20100;-84
2022/03/14 08:57:16;;;;;;;14.60;10.98;;;13.00;99.90;;;;;;5040097;28;20026;-82
2022/03/14 08:59:44;;;;;;;16.73;10.00;;;13.30;99.90;;;;;;5023347;28;20029;-82
2022/03/14 09:02:10;;;;;;;15.48;10.23;;;13.40;99.90;;;;;;5040039;28;20452;-85
2022/03/14 09:04:37;;;;;;;16.35;10.18;;;13.40;99.90;;;;;;5028328;28;20116;-84
2022/03/14 09:07:02;;;;;;;13.48;8.82;;;13.50;99.90;;;;;;5043460;28;20068;-84
2022/03/14 09:09:28;;;;;;;13.75;9.40;;;13.60;99.90;;;;;;5026910;28;20197;-86
2022/03/14 09:11:54;;;;;;;17.35;9.95;;;13.80;99.90;;;;;;5037832;28;20452;-85
2022/03/14 09:14:20;;;;;;;16.63;9.88;;;13.70;99.90;;;;;;5041898;28;20439;-85
2022/03/14 09:16:48;;;;;;;14.23;9.43;;;13.60;99.90;;;;;;5036428;28;20533;-85
2022/03/14 09:19:15;;;;;;;18.17;10.85;;;13.60;99.90;;;;;;5020475;28;20034;-86
2022/03/14 09:21:41;;;;;;;14.00;10.38;;;13.50;99.90;;;;;;5021778;28;20025;-86
2022/03/14 09:24:07;;;;;;;18.20;12.30;;;13.50;99.90;;;;;;5032391;28;20085;-85
2022/03/14 09:26:35;;;;;;;14.57;11.20;;;13.60;99.90;;;;;;5026785;28;20464;-85
2022/03/14 09:29:01;;;;;;;16.40;12.07;;;13.50;99.90;;;;;;5040684;28;20069;-85
2022/03/14 09:31:27;;;;;;;14.20;10.52;;;13.40;99.90;;;;;;5043175;28;20039;-85
2022/03/14 09:33:53;;;;;;;12.02;9.85;;;13.40;99.90;;;;;;5044882;28;20037;-85
2022/03/14 09:36:19;;;;;;;14.68;9.98;;;13.60;99.90;;;;;;5033262;28;20029;-86
2022/03/14 09:38:45;;;;;;;16.73;9.43;;;13.80;99.90;;;;;;5030181;28;20029;-85
2022/03/14 09:41:15;;;;;;;11.73;8.38;;;13.80;99.90;;;;;;5023238;28;20048;-84
2022/03/14 09:43:43;;;;;;;11.73;9.32;;;13.90;99.90;;;;;;5029317;28;20025;-90
2022/03/14 09:46:11;;;;;;;12.35;7.57;;;13.90;99.90;;;;;;5043163;28;20022;-86
2022/03/14 09:48:40;;;;;;;12.23;7.93;;;14.00;99.90;;;;;;5029962;28;20026;-84
2022/03/14 09:51:07;;;;;;;12.55;8.35;;;14.10;99.90;;;;;;5030476;28;20021;-85
2022/03/14 09:53:35;;;;;;;9.80;8.00;;;13.90;99.90;;;;;;5031496;28;20026;-87
2022/03/14 09:56:01;;;;;;;16.73;8.10;;;13.80;99.90;;;;;;5042642;28;20029;-78
2022/03/14 09:58:29;;;;;;;19.52;8.55;;;13.70;99.90;;;;;;5029014;28;20026;-87
2022/03/14 10:00:54;;;;;;;12.10;8.18;;;13.70;99.90;;;;;;5035770;28;20029;-82
2022/03/14 10:03:22;;;;;;;13.70;8.50;;;13.70;99.90;;;;;;5031172;28;20048;-87
2022/03/14 10:05:48;;;;;;;13.10;8.27;;;13.70;99.90;;;;;;5028971;28;20025;-87
2022/03/14 10:08:15;;;;;;;13.98;9.00;;;13.70;99.90;;;;;;5027487;28;20091;-88
2022/03/14 10:10:43;;;;;;;16.48;8.63;;;13.70;99.90;;;;;;5034597;28;20025;-89
2022/03/14 10:13:10;;;;;;;13.07;7.05;;;13.70;99.90;;;;;;5035092;28;20033;-82
2022/03/14 10:15:37;;;;;;;9.93;7.10;;;13.60;99.90;;;;;;5042953;28;20116;-84
2022/03/14 10:18:11;;;;;;;9.90;6.90;;;13.60;99.90;;;;;;5039180;28;20037;-84
2022/03/14 10:20:37;;;;;;;13.70;7.07;;;13.60;99.90;;;;;;5030367;28;20018;-84
2022/03/14 10:23:04;;;;;;;10.27;7.38;;;13.50;99.90;;;;;;5040292;28;20087;-84
2022/03/14 10:25:32;;;;;;;11.25;7.18;;;13.50;99.90;;;;;;5042499;28;20029;-84
2022/03/14 10:28:00;;;;;;;10.65;7.38;;;13.40;99.90;;;;;;5043172;28;20469;-85
2022/03/14 10:30:27;;;;;;;12.57;7.93;;;13.40;99.90;;;;;;5034834;28;20144;-84
2022/03/14 10:33:08;;;;;;;12.27;8.10;;;13.50;99.90;;;;;;5030206;28;20056;-86
2022/03/14 10:35:36;;;;;;;10.65;7.15;;;13.50;99.90;;;;;;5027491;28;20034;-82
2022/03/14 10:38:04;;;;;;;13.02;7.80;;;13.50;99.90;;;;;;5041019;28;20024;-86
2022/03/14 10:40:48;;;;;;;12.68;7.18;;;13.60;99.90;;;;;;5039916;28;20026;-86
2022/03/14 10:43:31;;;;;;;8.05;5.88;;;13.70;99.90;;;;;;5026432;28;20171;-84
2022/03/14 10:45:59;;;;;;;;;;;13.60;99.90;;;;;;5036358;28;20075;-87
2022/03/14 10:48:45;;;;;;;13.60;7.25;;;13.60;99.90;;;;;;5037610;28;19920;-86
2022/03/14 10:51:17;;;;;;;13.93;7.32;;;13.50;99.90;;;;;;5041946;28;20025;-85
2022/03/14 10:53:47;;;;;;;11.98;7.10;;;13.50;99.90;;;;;;5033532;28;20018;-87
2022/03/14 10:56:14;;;;;;;17.00;8.32;;;13.30;99.90;;;;;;5030114;28;20064;-89
2022/03/14 10:58:43;;;;;;;14.10;8.02;;;13.40;99.90;;;;;;5040983;28;20021;-91
2022/03/14 11:01:12;;;;;;;10.75;7.38;;;13.40;99.90;;;;;;5036729;28;20025;-87
2022/03/14 11:03:40;;;;;;;14.75;7.45;;;13.40;99.90;;;;;;5034430;28;20120;-89
2022/03/14 11:06:08;;;;;;;12.30;6.68;;;13.40;99.90;;;;;;5039572;28;20056;-90
2022/03/14 11:08:45;;;;;;;12.88;7.00;;;13.40;99.90;;;;;;5031442;28;20577;-82
2022/03/14 11:11:22;;;;;;;13.13;6.85;;;13.50;99.90;;;;;;5036542;28;20082;-85
2022/03/14 11:13:53;;;;;;;11.63;6.47;;;13.60;99.90;;;;;;5025742;28;20041;-84
2022/03/14 11:16:29;;;;;;;12.25;7.40;;;13.60;99.90;;;;;;5023503;28;20026;-80
2022/03/14 11:18:56;;;;;;;14.40;7.45;;;13.60;99.90;;;;;;5032265;28;20096;-80
2022/03/14 11:21:25;;;;;;;13.68;7.25;;;13.60;99.90;;;;;;5026269;28;20029;-80
2022/03/14 11:23:53;;;;;;;11.77;6.68;;;13.70;99.90;;;;;;5032329;28;20032;-78
2022/03/14 11:26:21;;;;;;;11.70;6.10;;;13.70;99.90;;;;;;5033334;28;20033;-78
2022/03/14 11:28:49;;;;;;;16.27;7.95;;;13.80;99.90;;;;;;5037512;28;20108;-79
2022/03/14 11:31:17;;;;;;;10.75;6.28;;;13.90;99.90;;;;;;5036585;28;20108;-78
2022/03/14 11:33:43;;;;;;;11.80;7.28;;;13.90;99.90;;;;;;5030257;28;20034;-78
2022/03/14 11:36:09;;;;;;;11.65;7.00;;;14.00;99.90;;;;;;5024153;28;20035;-78
2022/03/14 11:38:35;;;;;;;15.10;7.97;;;14.10;99.90;;;;;;5029567;28;20017;-78
2022/03/14 11:41:02;;;;;;;15.23;7.53;;;14.10;99.90;;;;;;5031487;28;20470;-79
2022/03/14 11:43:28;;;;;;;16.35;7.20;;;14.00;99.90;;;;;;5032858;28;20103;-78
2022/03/14 11:45:57;;;;;;;20.75;7.60;;;14.10;99.90;;;;;;5032113;28;20506;-79
2022/03/14 11:48:28;;;;;;;15.82;7.38;;;13.90;99.90;;;;;;5035027;28;20029;-78
2022/03/14 11:50:53;;;;;;;11.88;6.53;;;13.80;99.90;;;;;;5026849;28;20025;-80
2022/03/14 11:53:28;;;;;;;10.68;5.72;;;13.70;99.90;;;;;;5045093;28;20436;-78
2022/03/14 11:55:56;;;;;;;15.75;5.60;;;13.60;99.90;;;;;;5030752;28;20017;-80
2022/03/14 11:58:29;;;;;;;10.57;5.00;;;13.50;99.90;;;;;;5036862;28;20021;-79
2022/03/14 12:00:55;;;;;;;16.67;5.85;;;13.50;99.90;;;;;;5033311;28;20086;-78
2022/03/14 12:03:37;;;;;;;12.45;5.95;;;13.60;99.90;;;;;;5038484;28;20030;-79
2022/03/14 12:06:04;;;;;;;9.88;5.35;;;13.50;99.90;;;;;;5032989;28;20064;-79
2022/03/14 12:08:32;;;;;;;7.22;4.75;;;13.60;99.90;;;;;;5035656;28;20449;-79
2022/03/14 12:11:26;;;;;;;12.88;4.90;;;13.70;99.90;;;;;;5029332;28;20030;-77
2022/03/14 12:13:52;;;;;;;9.07;4.32;;;13.70;99.90;;;;;;5029070;28;20034;-80
2022/03/14 12:16:50;;;;;;;11.85;5.13;;;13.80;99.90;;;;;;5031654;28;20089;-80
2022/03/14 12:19:48;;;;;;;9.00;4.93;;;13.90;99.90;;;;;;5030112;28;20041;-81
2022/03/14 12:22:35;;;;;;;9.80;4.80;;;14.10;99.90;;;;;;5026508;28;20104;-80
2022/03/14 12:25:03;;;;;;;7.90;4.35;;;14.10;99.90;;;;;;5033030;28;20049;-80
2022/03/14 12:27:35;;;;;;;10.93;4.82;;;14.20;99.90;;;;;;5028716;28;20013;-81
2022/03/14 12:30:06;;;;;;;9.55;5.10;;;14.30;99.90;;;;;;5029857;28;20500;-80
2022/03/14 12:32:34;;;;;;;12.00;5.00;;;14.10;99.90;;;;;;5035810;28;20166;-81
2022/03/14 12:35:12;;;;;;;9.85;4.40;;;14.20;99.90;;;;;;5040442;28;20142;-80
2022/03/14 12:37:52;;;;;;;12.98;5.15;;;14.20;99.90;;;;;;5026097;28;20034;-80
2022/03/14 12:40:21;;;;;;;12.85;5.07;;;14.20;99.90;;;;;;5030580;28;20593;-81